createdAt,value
2022-08-08T00:01:06.482Z,17.80
2022-08-08T00:02:57.027Z,17.76
2022-08-08T00:04:56.178Z,17.68
2022-08-08T00:08:17.499Z,17.59
2022-08-08T00:10:17.451Z,17.52
2022-08-08T00:12:24.632Z,17.51
2022-08-08T00:14:48.710Z,17.48
2022-08-08T00:16:18.818Z,17.46
2022-08-08T00:18:18.891Z,17.46
2022-08-08T00:20:18.048Z,17.44
2022-08-08T00:22:18.110Z,17.42
2022-08-08T00:24:18.247Z,17.44
2022-08-08T00:26:26.292Z,17.42
2022-08-08T00:28:35.529Z,17.42
2022-08-08T00:30:19.588Z,17.41
2022-08-08T00:32:35.683Z,17.41
2022-08-08T00:34:20.296Z,17.39
2022-08-08T00:36:19.117Z,17.39
2022-08-08T00:38:31.817Z,17.41
2022-08-08T00:41:12.143Z,17.41
2022-08-08T00:42:34.621Z,17.41
2022-08-08T00:44:20.871Z,17.39
2022-08-08T00:46:19.586Z,17.39
2022-08-08T00:48:29.848Z,17.33
2022-08-08T00:50:20.809Z,17.31
2022-08-08T00:52:20.563Z,17.31
2022-08-08T00:54:19.965Z,17.30
2022-08-08T00:56:20.670Z,17.30
2022-08-08T00:58:20.563Z,17.30
2022-08-08T01:00:22.369Z,17.27
2022-08-08T01:03:53.959Z,17.22
2022-08-08T01:04:21.568Z,17.14
2022-08-08T01:06:27.181Z,17.08
2022-08-08T01:08:21.765Z,17.01
2022-08-08T01:10:21.934Z,16.96
2022-08-08T01:12:25.725Z,16.94
2022-08-08T01:14:53.577Z,16.94
2022-08-08T01:16:28.026Z,16.93
2022-08-08T01:18:50.587Z,16.93
2022-08-08T01:20:22.470Z,16.91
2022-08-08T01:22:23.618Z,16.90
2022-08-08T01:24:22.659Z,16.86
2022-08-08T01:26:24.139Z,16.84
2022-08-08T01:28:28.091Z,16.78
2022-08-08T01:30:22.953Z,16.69
2022-08-08T01:32:22.081Z,16.64
2022-08-08T01:34:22.208Z,16.60
2022-08-08T01:36:23.304Z,16.57
2022-08-08T01:38:22.391Z,16.54
2022-08-08T01:40:22.501Z,16.53
2022-08-08T01:42:36.547Z,16.50
2022-08-08T01:44:23.722Z,16.50
2022-08-08T01:46:22.866Z,16.53
2022-08-08T01:48:30.977Z,16.51
2022-08-08T01:50:26.848Z,16.51
2022-08-08T01:53:50.711Z,16.51
2022-08-08T01:55:26.746Z,16.50
2022-08-08T01:56:31.008Z,16.47
2022-08-08T01:58:38.165Z,16.49
2022-08-08T02:00:24.602Z,16.47
2022-08-08T02:02:34.875Z,16.39
2022-08-08T02:04:24.792Z,16.29
2022-08-08T02:06:33.097Z,16.23
2022-08-08T02:08:25.010Z,16.23
2022-08-08T02:10:29.834Z,16.23
2022-08-08T02:12:25.314Z,16.21
2022-08-08T02:14:24.330Z,16.21
2022-08-08T02:16:24.445Z,16.21
2022-08-08T02:18:24.629Z,16.21
2022-08-08T02:21:00.073Z,16.20
2022-08-08T02:22:28.380Z,16.21
2022-08-08T02:24:25.883Z,16.17
2022-08-08T02:26:24.982Z,16.16
2022-08-08T02:28:25.967Z,16.15
2022-08-08T02:30:26.164Z,16.10
2022-08-08T02:32:32.142Z,16.09
2022-08-08T02:34:27.486Z,16.05
2022-08-08T02:36:26.514Z,16.00
2022-08-08T02:38:30.025Z,16.01
2022-08-08T02:40:25.774Z,15.95
2022-08-08T02:42:36.232Z,15.88
2022-08-08T02:44:42.373Z,15.83
2022-08-08T02:46:27.042Z,15.84
2022-08-08T02:48:27.496Z,15.88
2022-08-08T02:50:26.285Z,15.88
2022-08-08T02:52:42.843Z,15.84
2022-08-08T02:54:27.920Z,15.82
2022-08-08T02:56:26.646Z,15.80
2022-08-08T02:58:26.917Z,15.83
2022-08-08T03:00:31.610Z,15.80
2022-08-08T03:02:30.241Z,15.77
2022-08-08T03:05:03.849Z,15.72
2022-08-08T03:06:34.790Z,15.70
2022-08-08T03:08:28.364Z,15.68
2022-08-08T03:10:32.806Z,15.68
2022-08-08T03:12:36.787Z,15.67
2022-08-08T03:15:59.350Z,15.67
2022-08-08T03:16:35.955Z,15.65
2022-08-08T03:18:31.348Z,15.67
2022-08-08T03:20:28.167Z,15.61
2022-08-08T03:22:38.563Z,15.51
2022-08-08T03:24:29.388Z,15.42
2022-08-08T03:26:30.651Z,15.39
2022-08-08T03:28:28.656Z,15.36
2022-08-08T03:30:28.770Z,15.33
2022-08-08T03:32:30.556Z,15.29
2022-08-08T03:34:28.989Z,15.25
2022-08-08T03:36:30.282Z,15.25
2022-08-08T03:38:53.874Z,15.24
2022-08-08T03:40:32.087Z,15.22
2022-08-08T03:42:30.822Z,15.21
2022-08-08T03:44:29.452Z,15.19
2022-08-08T03:46:30.808Z,15.17
2022-08-08T03:49:09.515Z,15.11
2022-08-08T03:50:30.774Z,15.07
2022-08-08T03:52:30.089Z,15.02
2022-08-08T03:54:40.633Z,15.02
2022-08-08T03:56:32.576Z,15.00
2022-08-08T03:58:37.507Z,14.94
2022-08-08T04:00:31.447Z,14.96
2022-08-08T04:02:36.609Z,14.97
2022-08-08T04:04:31.768Z,14.99
2022-08-08T04:06:30.916Z,14.96
2022-08-08T04:08:33.822Z,14.89
2022-08-08T04:10:32.136Z,14.89
2022-08-08T04:12:31.620Z,14.86
2022-08-08T04:14:35.517Z,14.85
2022-08-08T04:17:59.170Z,14.84
2022-08-08T04:19:48.969Z,14.81
2022-08-08T04:21:48.108Z,14.79
2022-08-08T04:24:12.173Z,14.78
2022-08-08T04:25:49.384Z,14.81
2022-08-08T04:28:10.575Z,14.79
2022-08-08T04:29:55.505Z,14.81
2022-08-08T04:31:58.862Z,14.79
2022-08-08T04:33:50.026Z,14.77
2022-08-08T04:35:50.975Z,14.78
2022-08-08T04:37:49.312Z,14.78
2022-08-08T04:40:06.735Z,14.78
2022-08-08T04:41:50.600Z,14.77
2022-08-08T04:43:54.203Z,14.73
2022-08-08T04:45:50.880Z,14.82
2022-08-08T04:47:49.902Z,14.86
2022-08-08T04:50:01.155Z,14.91
2022-08-08T04:51:57.390Z,14.96
2022-08-08T04:54:27.102Z,14.94
2022-08-08T04:55:56.021Z,14.96
2022-08-08T04:57:51.604Z,14.97
2022-08-08T04:59:50.713Z,14.99
2022-08-08T05:01:50.878Z,15.00
2022-08-08T05:04:08.454Z,15.00
2022-08-08T05:05:53.478Z,14.97
2022-08-08T05:07:51.223Z,14.97
2022-08-08T05:09:52.369Z,14.94
2022-08-08T05:11:56.603Z,14.97
2022-08-08T05:13:57.995Z,15.03
2022-08-08T05:16:52.825Z,15.09
2022-08-08T05:17:53.634Z,15.14
2022-08-08T05:20:12.329Z,15.14
2022-08-08T05:21:59.562Z,15.10
2022-08-08T05:24:03.033Z,15.10
2022-08-08T05:25:57.272Z,15.10
2022-08-08T05:27:54.866Z,15.11
2022-08-08T05:29:52.708Z,15.14
2022-08-08T05:32:03.895Z,15.15
2022-08-08T05:33:54.014Z,15.17
2022-08-08T05:35:53.222Z,15.24
2022-08-08T05:37:54.476Z,15.35
2022-08-08T05:39:53.406Z,15.42
2022-08-08T05:41:54.859Z,15.49
2022-08-08T05:44:03.635Z,15.55
2022-08-08T05:45:55.203Z,15.59
2022-08-08T05:48:00.039Z,15.65
2022-08-08T05:49:56.212Z,15.70
2022-08-08T05:51:54.243Z,15.75
2022-08-08T05:54:26.920Z,15.80
2022-08-08T05:56:10.272Z,15.79
2022-08-08T05:58:04.067Z,15.70
2022-08-08T06:00:01.114Z,15.62
2022-08-08T06:01:58.023Z,15.70
2022-08-08T06:03:55.687Z,15.82
2022-08-08T06:05:56.719Z,15.88
2022-08-08T06:08:00.198Z,15.95
2022-08-08T06:10:00.993Z,16.05
2022-08-08T06:11:56.551Z,16.13
2022-08-08T06:13:55.663Z,16.17
2022-08-08T06:15:55.815Z,16.29
2022-08-08T06:18:18.415Z,16.33
2022-08-08T06:19:57.042Z,16.41
2022-08-08T06:21:57.607Z,16.56
2022-08-08T06:24:03.311Z,16.97
2022-08-08T06:26:43.673Z,17.87
2022-08-08T06:27:57.456Z,18.78
2022-08-08T06:30:01.119Z,19.69
2022-08-08T06:32:10.056Z,20.52
2022-08-08T06:34:25.822Z,21.37
2022-08-08T06:36:06.335Z,21.99
2022-08-08T06:37:58.087Z,22.35
2022-08-08T06:39:57.356Z,22.65
2022-08-08T06:41:57.360Z,22.94
2022-08-08T06:43:57.668Z,22.91
2022-08-08T06:45:57.602Z,22.59
2022-08-08T06:48:01.131Z,22.47
2022-08-08T06:49:57.782Z,22.59
2022-08-08T06:51:58.242Z,22.57
2022-08-08T06:54:00.802Z,22.70
2022-08-08T06:56:02.853Z,22.88
2022-08-08T06:58:00.726Z,22.83
2022-08-08T07:00:10.712Z,22.63
2022-08-08T07:02:27.548Z,22.51
2022-08-08T07:04:36.749Z,23.02
2022-08-08T07:06:02.203Z,23.27
2022-08-08T07:07:58.890Z,23.66
2022-08-08T07:09:59.573Z,23.63
2022-08-08T07:11:59.158Z,23.69
2022-08-08T07:14:00.794Z,23.77
2022-08-08T07:16:05.377Z,23.99
2022-08-08T07:18:02.051Z,24.65
2022-08-08T07:20:00.586Z,24.81
2022-08-08T07:22:05.536Z,25.04
2022-08-08T07:24:02.827Z,24.91
2022-08-08T07:25:59.927Z,25.29
2022-08-08T07:28:02.459Z,25.29
2022-08-08T07:30:05.978Z,25.23
2022-08-08T07:32:01.725Z,25.25
2022-08-08T07:34:00.417Z,25.44
2022-08-08T07:36:00.546Z,25.44
2022-08-08T07:38:10.517Z,25.40
2022-08-08T07:40:02.680Z,25.23
2022-08-08T07:42:03.981Z,24.95
2022-08-08T07:44:01.744Z,24.84
2022-08-08T07:46:18.081Z,25.36
2022-08-08T07:48:02.240Z,26.40
2022-08-08T07:50:01.360Z,27.22
2022-08-08T07:52:01.495Z,27.45
2022-08-08T07:54:03.537Z,27.64
2022-08-08T07:56:01.753Z,27.54
2022-08-08T07:58:01.868Z,27.86
2022-08-08T08:00:01.987Z,28.32
2022-08-08T08:02:34.999Z,28.78
2022-08-08T08:04:03.281Z,28.85
2022-08-08T08:06:02.405Z,28.67
2022-08-08T08:08:02.489Z,29.01
2022-08-08T08:10:02.733Z,29.76
2022-08-08T08:12:02.790Z,30.21
2022-08-08T08:14:08.328Z,30.37
2022-08-08T08:16:04.375Z,30.30
2022-08-08T08:18:03.174Z,30.77
2022-08-08T08:20:03.299Z,30.81
2022-08-08T08:22:07.771Z,30.90
2022-08-08T08:24:03.789Z,31.00
2022-08-08T08:26:03.692Z,30.94
2022-08-08T08:28:03.865Z,31.29
2022-08-08T08:30:03.976Z,31.62
2022-08-08T08:32:05.678Z,31.97
2022-08-08T08:34:04.224Z,32.45
2022-08-08T08:36:19.524Z,33.00
2022-08-08T08:38:17.166Z,33.22
2022-08-08T08:40:05.683Z,33.34
2022-08-08T08:42:04.823Z,33.07
2022-08-08T08:44:14.018Z,33.07
2022-08-08T08:46:06.016Z,32.29
2022-08-08T08:48:05.117Z,32.30
2022-08-08T08:50:10.685Z,32.63
2022-08-08T08:52:06.345Z,32.46
2022-08-08T08:54:05.467Z,32.34
2022-08-08T08:56:05.672Z,32.52
2022-08-08T08:58:05.763Z,32.93
2022-08-08T09:00:15.234Z,33.27
2022-08-08T09:02:07.026Z,33.09
2022-08-08T09:04:06.081Z,33.24
2022-08-08T09:06:19.307Z,33.71
2022-08-08T09:08:12.832Z,33.94
2022-08-08T09:10:11.094Z,33.90
2022-08-08T09:12:08.570Z,34.11
2022-08-08T09:14:06.735Z,34.52
2022-08-08T09:16:06.807Z,34.71
2022-08-08T09:18:06.949Z,34.88
2022-08-08T09:21:58.691Z,34.81
2022-08-08T09:22:08.223Z,34.55
2022-08-08T09:24:07.815Z,34.92
2022-08-08T09:26:12.434Z,34.95
2022-08-08T09:28:07.582Z,35.34
2022-08-08T09:30:07.704Z,35.89
2022-08-08T09:32:11.943Z,36.08
2022-08-08T09:34:31.566Z,36.47
2022-08-08T09:36:09.050Z,36.58
2022-08-08T09:38:17.517Z,36.73
2022-08-08T09:40:11.216Z,37.02
2022-08-08T09:42:19.967Z,37.06
2022-08-08T09:44:13.110Z,36.86
2022-08-08T09:46:11.278Z,36.17
2022-08-08T09:48:21.053Z,35.55
2022-08-08T09:50:13.675Z,34.70
2022-08-08T09:52:16.247Z,34.74
2022-08-08T09:54:14.113Z,35.00
2022-08-08T09:56:12.305Z,35.15
2022-08-08T09:58:09.779Z,35.79
2022-08-08T10:00:32.934Z,35.92
2022-08-08T10:02:14.464Z,36.16
2022-08-08T10:04:09.901Z,36.67
2022-08-08T10:06:10.001Z,36.68
2022-08-08T10:08:10.180Z,36.58
2022-08-08T10:10:10.192Z,36.40
2022-08-08T10:12:27.930Z,36.40
2022-08-08T10:14:28.084Z,36.21
2022-08-08T10:16:11.749Z,36.49
2022-08-08T10:18:17.054Z,36.76
2022-08-08T10:20:17.151Z,36.72
2022-08-08T10:22:10.829Z,36.59
2022-08-08T10:24:28.276Z,36.98
2022-08-08T10:26:26.063Z,36.95
2022-08-08T10:28:15.177Z,37.13
2022-08-08T10:30:23.590Z,37.10
2022-08-08T10:32:12.412Z,37.32
2022-08-08T10:34:20.209Z,37.30
2022-08-08T10:36:20.796Z,37.13
2022-08-08T10:38:13.744Z,36.91
2022-08-08T10:40:11.999Z,36.98
2022-08-08T10:42:15.423Z,37.06
2022-08-08T10:44:12.415Z,37.21
2022-08-08T10:46:29.671Z,37.11
2022-08-08T10:48:13.432Z,37.53
2022-08-08T10:50:15.311Z,37.36
2022-08-08T10:52:12.631Z,37.58
2022-08-08T10:54:12.746Z,37.65
2022-08-08T10:56:15.910Z,37.70
2022-08-08T10:58:13.990Z,37.68
2022-08-08T11:00:13.110Z,37.77
2022-08-08T11:02:13.360Z,37.44
2022-08-08T11:04:13.431Z,37.63
2022-08-08T11:06:14.040Z,37.03
2022-08-08T11:08:37.971Z,36.79
2022-08-08T11:10:19.871Z,36.73
2022-08-08T11:12:14.923Z,36.79
2022-08-08T11:14:16.319Z,36.51
2022-08-08T11:16:32.355Z,35.22
2022-08-08T11:18:15.262Z,35.55
2022-08-08T11:20:14.493Z,35.85
2022-08-08T11:22:14.601Z,35.86
2022-08-08T11:24:14.700Z,36.18
2022-08-08T11:26:19.190Z,36.37
2022-08-08T11:28:18.601Z,36.86
2022-08-08T11:30:24.047Z,36.86
2022-08-08T11:32:16.339Z,36.52
2022-08-08T11:34:24.423Z,36.51
2022-08-08T11:36:16.616Z,36.45
2022-08-08T11:38:35.633Z,35.88
2022-08-08T11:40:16.959Z,36.04
2022-08-08T11:42:16.993Z,35.93
2022-08-08T11:44:16.425Z,36.17
2022-08-08T11:46:18.308Z,36.36
2022-08-08T11:48:20.311Z,36.27
2022-08-08T11:50:16.593Z,36.62
2022-08-08T11:52:18.492Z,37.17
2022-08-08T11:54:31.552Z,37.13
2022-08-08T11:56:18.019Z,37.02
2022-08-08T11:58:17.228Z,36.54
2022-08-08T12:00:17.298Z,36.33
2022-08-08T12:02:31.659Z,36.42
2022-08-08T12:04:18.612Z,36.28
2022-08-08T12:06:17.716Z,36.31
2022-08-08T12:08:17.824Z,36.00
2022-08-08T12:10:18.062Z,36.01
2022-08-08T12:12:22.461Z,35.56
2022-08-08T12:14:19.246Z,35.19
2022-08-08T12:16:18.347Z,35.10
2022-08-08T12:18:21.629Z,34.24
2022-08-08T12:20:19.694Z,34.01
2022-08-08T12:22:33.481Z,33.57
2022-08-08T12:24:19.879Z,33.22
2022-08-08T12:26:27.492Z,32.63
2022-08-08T12:28:20.049Z,33.00
2022-08-08T12:30:24.929Z,33.30
2022-08-08T12:32:21.010Z,33.14
2022-08-08T12:34:20.442Z,32.86
2022-08-08T12:36:20.656Z,33.07
2022-08-08T12:38:19.753Z,33.47
2022-08-08T12:40:22.910Z,33.20
2022-08-08T12:42:21.148Z,32.95
2022-08-08T12:44:32.268Z,33.19
2022-08-08T12:46:26.147Z,33.45
2022-08-08T12:48:37.243Z,33.57
2022-08-08T12:50:21.796Z,33.46
2022-08-08T12:52:28.762Z,33.36
2022-08-08T12:54:24.174Z,33.57
2022-08-08T12:56:24.172Z,33.43
2022-08-08T12:58:21.105Z,33.62
2022-08-08T13:00:22.172Z,33.19
2022-08-08T13:02:22.197Z,32.73
2022-08-08T13:04:24.433Z,32.74
2022-08-08T13:06:21.381Z,32.23
2022-08-08T13:08:22.893Z,32.48
2022-08-08T13:10:28.227Z,32.80
2022-08-08T13:12:37.141Z,33.15
2022-08-08T13:14:22.889Z,33.17
2022-08-08T13:16:25.209Z,33.02
2022-08-08T13:18:27.370Z,33.07
2022-08-08T13:20:23.258Z,33.02
2022-08-08T13:22:24.571Z,32.93
2022-08-08T13:24:38.514Z,32.89
2022-08-08T13:26:24.798Z,32.56
2022-08-08T13:28:22.669Z,32.23
2022-08-08T13:30:26.315Z,32.09
2022-08-08T13:32:28.608Z,32.14
2022-08-08T13:34:33.324Z,32.09
2022-08-08T13:36:26.223Z,32.00
2022-08-08T13:38:23.229Z,32.16
2022-08-08T13:40:27.272Z,32.36
2022-08-08T13:42:23.478Z,32.37
2022-08-08T13:44:23.549Z,32.09
2022-08-08T13:46:26.533Z,31.55
2022-08-08T13:48:25.845Z,31.29
2022-08-08T13:50:36.437Z,31.40
2022-08-08T13:52:37.615Z,31.37
2022-08-08T13:54:29.460Z,31.36
2022-08-08T13:56:25.344Z,31.28
2022-08-08T13:58:24.393Z,31.20
2022-08-08T14:00:24.523Z,31.42
2022-08-08T14:02:33.325Z,31.56
2022-08-08T14:04:25.950Z,31.70
2022-08-08T14:06:34.048Z,31.69
2022-08-08T14:08:29.754Z,31.74
2022-08-08T14:10:33.557Z,31.92
2022-08-08T14:12:26.286Z,32.09
2022-08-08T14:14:26.317Z,32.14
2022-08-08T14:16:25.549Z,32.11
2022-08-08T14:18:36.331Z,32.08
2022-08-08T14:20:58.059Z,32.08
2022-08-08T14:22:26.856Z,31.90
2022-08-08T14:24:26.052Z,31.85
2022-08-08T14:26:28.221Z,31.84
2022-08-08T14:28:29.259Z,31.44
2022-08-08T14:30:26.361Z,31.34
2022-08-08T14:32:29.981Z,31.05
2022-08-08T14:34:27.760Z,31.07
2022-08-08T14:36:26.674Z,31.05
2022-08-08T14:38:34.177Z,30.92
2022-08-08T14:40:28.041Z,30.90
2022-08-08T14:42:27.085Z,30.94
2022-08-08T14:44:30.361Z,31.10
2022-08-08T14:46:32.669Z,31.28
2022-08-08T14:48:38.760Z,31.39
2022-08-08T14:50:38.020Z,31.46
2022-08-08T14:52:28.710Z,31.29
2022-08-08T14:54:29.543Z,31.21
2022-08-08T14:56:27.855Z,31.28
2022-08-08T14:58:27.936Z,31.34
2022-08-08T15:00:28.070Z,31.52
2022-08-08T15:02:30.994Z,31.58
2022-08-08T15:04:28.257Z,31.66
2022-08-08T15:06:28.418Z,31.61
2022-08-08T15:08:34.370Z,31.42
2022-08-08T15:10:29.680Z,31.39
2022-08-08T15:12:28.822Z,31.21
2022-08-08T15:14:28.930Z,31.02
2022-08-08T15:16:29.085Z,30.94
2022-08-08T15:18:29.837Z,30.96
2022-08-08T15:20:29.312Z,30.99
2022-08-08T15:22:29.467Z,31.02
2022-08-08T15:24:31.569Z,31.02
2022-08-08T15:26:29.721Z,31.05
2022-08-08T15:28:33.532Z,30.97
2022-08-08T15:30:29.977Z,30.85
2022-08-08T15:32:31.659Z,30.83
2022-08-08T15:34:32.166Z,30.80
2022-08-08T15:36:30.312Z,30.84
2022-08-08T15:38:30.407Z,30.88
2022-08-08T15:40:30.559Z,30.90
2022-08-08T15:42:31.685Z,30.66
2022-08-08T15:44:31.787Z,30.63
2022-08-08T15:46:34.795Z,30.65
2022-08-08T15:48:31.146Z,30.59
2022-08-08T15:50:31.188Z,30.59
2022-08-08T15:52:33.170Z,30.55
2022-08-08T15:54:38.822Z,30.54
2022-08-08T15:56:32.602Z,30.53
2022-08-08T15:58:31.912Z,30.51
2022-08-08T16:00:31.793Z,30.44
2022-08-08T16:02:32.318Z,30.40
2022-08-08T16:04:32.053Z,30.43
2022-08-08T16:06:32.146Z,30.24
2022-08-08T16:08:32.335Z,30.13
2022-08-08T16:13:09.239Z,30.05
2022-08-08T16:13:15.032Z,29.95
2022-08-08T16:14:33.889Z,30.03
2022-08-08T16:16:32.790Z,30.02
2022-08-08T16:18:33.080Z,30.05
2022-08-08T16:20:33.068Z,30.09
2022-08-08T16:22:33.191Z,30.10
2022-08-08T16:24:33.319Z,30.02
2022-08-08T16:26:35.335Z,30.09
2022-08-08T16:28:35.364Z,30.03
2022-08-08T16:30:36.693Z,29.95
2022-08-08T16:32:34.045Z,29.84
2022-08-08T16:34:34.052Z,29.78
2022-08-08T16:36:34.411Z,29.66
2022-08-08T16:38:34.333Z,29.53
2022-08-08T16:40:34.607Z,29.45
2022-08-08T16:42:34.940Z,29.35
2022-08-08T16:44:34.759Z,29.34
2022-08-08T16:46:36.386Z,29.29
2022-08-08T16:48:37.030Z,29.23
2022-08-08T16:50:35.170Z,29.24
2022-08-08T16:55:03.427Z,29.16
2022-08-08T16:55:05.270Z,29.17
2022-08-08T16:56:36.527Z,29.17
2022-08-08T16:58:36.674Z,29.13
2022-08-08T17:00:35.848Z,29.02
2022-08-08T17:02:44.555Z,28.96
2022-08-08T17:04:37.173Z,28.96
2022-08-08T17:06:43.818Z,28.91
2022-08-08T17:08:37.324Z,28.94
2022-08-08T17:10:36.495Z,28.94
2022-08-08T17:12:37.380Z,28.79
2022-08-08T17:14:36.779Z,28.75
2022-08-08T17:16:36.931Z,28.64
2022-08-08T17:18:37.043Z,28.59
2022-08-08T17:20:38.109Z,28.49
2022-08-08T17:22:39.109Z,28.42
2022-08-08T17:24:38.451Z,28.38
2022-08-08T17:26:37.585Z,28.27
2022-08-08T17:28:37.746Z,28.17
2022-08-08T17:30:37.871Z,28.12
2022-08-08T17:33:43.864Z,28.08
2022-08-08T17:34:54.738Z,27.93
2022-08-08T17:36:44.177Z,27.82
2022-08-08T17:38:39.451Z,27.77
2022-08-08T17:40:38.610Z,27.70
2022-08-08T17:42:38.711Z,27.60
2022-08-08T17:44:39.810Z,27.55
2022-08-08T17:46:39.939Z,27.49
2022-08-08T17:48:39.082Z,27.47
2022-08-08T17:50:39.229Z,27.44
2022-08-08T17:52:43.006Z,27.36
2022-08-08T17:54:39.474Z,27.29
2022-08-08T17:56:39.622Z,27.20
2022-08-08T17:58:39.762Z,27.15
2022-08-08T18:00:41.378Z,27.03
2022-08-08T18:02:40.106Z,26.99
2022-08-08T18:04:47.835Z,26.89
2022-08-08T18:06:43.091Z,26.77
2022-08-08T18:08:41.984Z,26.74
2022-08-08T18:10:40.607Z,26.71
2022-08-08T18:12:40.749Z,26.59
2022-08-08T18:14:40.895Z,26.53
2022-08-08T18:16:41.288Z,26.48
2022-08-08T18:18:45.148Z,26.47
2022-08-08T18:20:54.576Z,26.38
2022-08-08T18:22:50.915Z,26.29
2022-08-08T18:24:42.621Z,26.16
2022-08-08T18:26:42.684Z,26.09
2022-08-08T18:28:54.717Z,25.99
2022-08-08T18:30:43.019Z,25.96
2022-08-08T18:32:43.211Z,25.87
2022-08-08T18:34:42.599Z,25.77
2022-08-08T18:36:44.378Z,25.73
2022-08-08T18:38:42.498Z,25.66
2022-08-08T18:40:42.622Z,25.62
2022-08-08T18:42:45.607Z,25.59
2022-08-08T18:44:55.826Z,25.53
2022-08-08T18:46:55.465Z,25.44
2022-08-08T18:48:44.169Z,25.36
2022-08-08T18:50:50.067Z,25.25
2022-08-08T18:52:44.462Z,25.14
2022-08-08T18:54:44.553Z,25.10
2022-08-08T18:56:44.681Z,25.07
2022-08-08T18:58:43.832Z,24.99
2022-08-08T19:00:46.518Z,24.93
2022-08-08T19:02:54.757Z,24.92
2022-08-08T19:04:45.210Z,24.85
2022-08-08T19:06:47.014Z,24.80
2022-08-08T19:08:45.578Z,24.74
2022-08-08T19:10:44.621Z,24.70
2022-08-08T19:12:53.223Z,24.70
2022-08-08T19:14:45.997Z,24.68
2022-08-08T19:16:45.029Z,24.65
2022-08-08T19:18:51.812Z,24.60
2022-08-08T19:20:46.519Z,24.57
2022-08-08T19:22:45.273Z,24.53
2022-08-08T19:25:21.354Z,24.50
2022-08-08T19:26:50.992Z,24.47
2022-08-08T19:28:46.649Z,24.45
2022-08-08T19:30:51.422Z,24.45
2022-08-08T19:32:46.813Z,24.43
2022-08-08T19:34:45.912Z,24.40
2022-08-08T19:36:46.013Z,24.39
2022-08-08T19:38:46.441Z,24.30
2022-08-08T19:40:46.321Z,24.24
2022-08-08T19:42:46.376Z,24.20
2022-08-08T19:44:50.207Z,24.16
2022-08-08T19:46:46.697Z,24.13
2022-08-08T19:48:46.718Z,24.11
2022-08-08T19:50:46.982Z,24.05
2022-08-08T19:52:54.395Z,24.03
2022-08-08T19:54:51.201Z,24.01
2022-08-08T19:56:48.956Z,23.96
2022-08-08T19:58:51.891Z,23.92
2022-08-08T20:00:47.538Z,23.87
2022-08-08T20:02:50.463Z,23.86
2022-08-08T20:04:47.758Z,23.81
2022-08-08T20:06:47.890Z,23.77
2022-08-08T20:08:48.774Z,23.74
2022-08-08T20:10:48.198Z,23.66
2022-08-08T20:12:59.226Z,23.65
2022-08-08T20:14:51.647Z,23.59
2022-08-08T20:16:48.550Z,23.56
2022-08-08T20:18:52.763Z,23.55
2022-08-08T20:20:49.842Z,23.51
2022-08-08T20:22:53.820Z,23.50
2022-08-08T20:24:49.984Z,23.47
2022-08-08T20:26:49.541Z,23.43
2022-08-08T20:28:51.042Z,23.41
2022-08-08T20:30:55.893Z,23.37
2022-08-08T20:32:50.482Z,23.31
2022-08-08T20:34:53.550Z,23.31
2022-08-08T20:36:49.650Z,23.28
2022-08-08T20:38:50.443Z,23.28
2022-08-08T20:40:51.211Z,23.23
2022-08-08T20:42:49.987Z,23.21
2022-08-08T20:44:50.054Z,23.24
2022-08-08T20:46:50.188Z,23.18
2022-08-08T20:48:50.253Z,23.13
2022-08-08T20:50:50.676Z,23.09
2022-08-08T20:52:50.610Z,23.06
2022-08-08T20:54:50.714Z,23.02
2022-08-08T20:57:04.638Z,23.02
2022-08-08T20:58:51.836Z,23.03
2022-08-08T21:00:50.961Z,23.00
2022-08-08T21:02:52.793Z,22.99
2022-08-08T21:04:51.133Z,22.94
2022-08-08T21:06:52.789Z,22.85
2022-08-08T21:08:51.608Z,22.80
2022-08-08T21:10:53.602Z,22.80
2022-08-08T21:12:53.044Z,22.80
2022-08-08T21:14:51.690Z,22.78
2022-08-08T21:16:51.826Z,22.81
2022-08-08T21:18:51.953Z,22.81
2022-08-08T21:20:52.073Z,22.78
2022-08-08T21:22:52.233Z,22.72
2022-08-08T21:24:53.706Z,22.73
2022-08-08T21:26:52.430Z,22.70
2022-08-08T21:28:53.036Z,22.66
2022-08-08T21:30:52.738Z,22.63
2022-08-08T21:32:53.356Z,22.63
2022-08-08T21:34:56.516Z,22.59
2022-08-08T21:36:53.071Z,22.53
2022-08-08T21:38:53.186Z,22.44
2022-08-08T21:40:54.796Z,22.38
2022-08-08T21:42:53.501Z,22.32
2022-08-08T21:44:58.420Z,22.22
2022-08-08T21:48:03.820Z,22.13
2022-08-08T21:48:55.812Z,21.99
2022-08-08T21:50:53.891Z,21.89
2022-08-08T21:54:32.732Z,21.79
2022-08-08T21:55:03.234Z,21.73
2022-08-08T21:56:55.208Z,21.69
2022-08-08T21:58:55.484Z,21.67
2022-08-08T22:00:54.940Z,21.62
2022-08-08T22:02:54.573Z,21.54
2022-08-08T22:04:55.745Z,21.46
2022-08-08T22:06:54.871Z,21.39
2022-08-08T22:08:54.936Z,21.36
2022-08-08T22:10:55.061Z,21.30
2022-08-08T22:12:59.912Z,21.25
2022-08-08T22:14:56.315Z,21.15
2022-08-08T22:16:55.421Z,21.11
2022-08-08T22:18:55.559Z,21.05
2022-08-08T22:20:55.721Z,20.96
2022-08-08T22:22:55.792Z,20.84
2022-08-08T22:24:55.889Z,20.78
2022-08-08T22:27:02.314Z,20.72
2022-08-08T22:29:14.681Z,20.69
2022-08-08T22:30:57.218Z,20.66
2022-08-08T22:32:56.373Z,20.58
2022-08-08T22:34:56.440Z,20.50
2022-08-08T22:36:56.560Z,20.40
2022-08-08T22:38:56.655Z,20.29
2022-08-08T22:40:56.760Z,20.24
2022-08-08T22:42:56.904Z,20.18
2022-08-08T22:44:57.019Z,20.10
2022-08-08T22:46:57.183Z,20.02
2022-08-08T22:48:57.276Z,19.91
2022-08-08T22:50:57.381Z,19.79
2022-08-08T22:54:15.753Z,19.70
2022-08-08T22:55:05.191Z,19.62
2022-08-08T22:56:58.672Z,19.55
2022-08-08T22:58:57.820Z,19.52
2022-08-08T23:00:57.925Z,19.51
2022-08-08T23:02:58.085Z,19.45
2022-08-08T23:05:01.996Z,19.44
2022-08-08T23:07:02.600Z,19.36
2022-08-08T23:09:00.434Z,19.26
2022-08-08T23:11:06.217Z,19.15
2022-08-08T23:12:59.806Z,19.08
2022-08-08T23:15:10.586Z,19.02
2022-08-08T23:16:59.879Z,19.00
2022-08-08T23:19:00.068Z,19.00
2022-08-08T23:20:59.089Z,18.99
2022-08-08T23:22:59.201Z,18.99
2022-08-08T23:24:59.349Z,18.99
2022-08-08T23:26:59.432Z,18.95
2022-08-08T23:28:59.550Z,18.92
2022-08-08T23:30:59.690Z,18.89
2022-08-08T23:32:59.761Z,18.81
2022-08-08T23:34:59.868Z,18.75
2022-08-08T23:37:00.751Z,18.71
2022-08-08T23:39:00.083Z,18.70
2022-08-08T23:41:00.361Z,18.71
2022-08-08T23:43:04.220Z,18.70
2022-08-08T23:45:00.505Z,18.70
2022-08-08T23:49:04.179Z,18.68
2022-08-08T23:49:18.526Z,18.70
2022-08-08T23:51:01.911Z,18.68
2022-08-08T23:53:03.478Z,18.68
2022-08-08T23:55:13.987Z,18.68
2022-08-08T23:57:02.500Z,18.73
2022-08-08T23:59:02.616Z,18.73
